sensor_id;sensor_type;location;lat;lon;timestamp;pressure;altitude;pressure_sealevel;temperature
24714;BMP280;12820;51.580;5.010;2022-09-09T00:02:20;100732.31;;;17.37
24714;BMP280;12820;51.580;5.010;2022-09-09T00:07:48;100732.53;;;17.32
24714;BMP280;12820;51.580;5.010;2022-09-09T00:23:29;100711.03;;;17.21
24714;BMP280;12820;51.580;5.010;2022-09-09T00:28:38;100709.47;;;17.17
24714;BMP280;12820;51.580;5.010;2022-09-09T00:33:42;100712.22;;;17.13
24714;BMP280;12820;51.580;5.010;2022-09-09T00:38:48;100696.28;;;17.09
24714;BMP280;12820;51.580;5.010;2022-09-09T00:44:01;100703.13;;;17.07
24714;BMP280;12820;51.580;5.010;2022-09-09T00:49:49;100696.53;;;17.04
24714;BMP280;12820;51.580;5.010;2022-09-09T01:00:25;100698.59;;;16.96
24714;BMP280;12820;51.580;5.010;2022-09-09T01:05:40;100706.34;;;16.93
24714;BMP280;12820;51.580;5.010;2022-09-09T01:10:53;100697.97;;;16.89
24714;BMP280;12820;51.580;5.010;2022-09-09T01:16:04;100700.66;;;16.87
24714;BMP280;12820;51.580;5.010;2022-09-09T01:21:22;100683.81;;;16.84
24714;BMP280;12820;51.580;5.010;2022-09-09T01:26:39;100678.88;;;16.81
24714;BMP280;12820;51.580;5.010;2022-09-09T01:31:59;100674.75;;;16.79
24714;BMP280;12820;51.580;5.010;2022-09-09T01:37:08;100678.25;;;16.76
24714;BMP280;12820;51.580;5.010;2022-09-09T01:42:15;100683.38;;;16.75
24714;BMP280;12820;51.580;5.010;2022-09-09T01:47:18;100664.03;;;16.72
24714;BMP280;12820;51.580;5.010;2022-09-09T01:52:35;100667.44;;;16.71
24714;BMP280;12820;51.580;5.010;2022-09-09T01:57:50;100663.25;;;16.71
24714;BMP280;12820;51.580;5.010;2022-09-09T02:03:05;100664.13;;;16.70
24714;BMP280;12820;51.580;5.010;2022-09-09T02:08:42;100654.13;;;16.67
24714;BMP280;12820;51.580;5.010;2022-09-09T02:13:48;100655.84;;;16.66
24714;BMP280;12820;51.580;5.010;2022-09-09T02:24:27;100656.03;;;16.62
24714;BMP280;12820;51.580;5.010;2022-09-09T02:29:43;100652.75;;;16.60
24714;BMP280;12820;51.580;5.010;2022-09-09T02:34:57;100647.72;;;16.58
24714;BMP280;12820;51.580;5.010;2022-09-09T02:40:02;100647.66;;;16.60
24714;BMP280;12820;51.580;5.010;2022-09-09T02:45:08;100646.94;;;16.56
24714;BMP280;12820;51.580;5.010;2022-09-09T02:55:41;100643.66;;;16.54
24714;BMP280;12820;51.580;5.010;2022-09-09T03:00:49;100642.09;;;16.51
24714;BMP280;12820;51.580;5.010;2022-09-09T03:05:53;100647.25;;;16.49
24714;BMP280;12820;51.580;5.010;2022-09-09T03:10:58;100646.50;;;16.47
24714;BMP280;12820;51.580;5.010;2022-09-09T03:16:05;100655.81;;;16.47
24714;BMP280;12820;51.580;5.010;2022-09-09T03:21:14;100658.44;;;16.45
24714;BMP280;12820;51.580;5.010;2022-09-09T03:26:17;100650.03;;;16.43
24714;BMP280;12820;51.580;5.010;2022-09-09T03:31:21;100642.47;;;16.42
24714;BMP280;12820;51.580;5.010;2022-09-09T03:36:26;100637.41;;;16.42
24714;BMP280;12820;51.580;5.010;2022-09-09T03:41:29;100636.66;;;16.40
24714;BMP280;12820;51.580;5.010;2022-09-09T03:46:31;100639.19;;;16.40
24714;BMP280;12820;51.580;5.010;2022-09-09T03:51:34;100635.88;;;16.38
24714;BMP280;12820;51.580;5.010;2022-09-09T03:56:39;100641.00;;;16.36
24714;BMP280;12820;51.580;5.010;2022-09-09T04:01:45;100635.19;;;16.35
24714;BMP280;12820;51.580;5.010;2022-09-09T04:06:48;100634.41;;;16.33
24714;BMP280;12820;51.580;5.010;2022-09-09T04:11:53;100642.84;;;16.33
24714;BMP280;12820;51.580;5.010;2022-09-09T04:16:55;100635.28;;;16.32
24714;BMP280;12820;51.580;5.010;2022-09-09T04:22:00;100636.22;;;16.31
24714;BMP280;12820;51.580;5.010;2022-09-09T04:27:02;100634.59;;;16.28
24714;BMP280;12820;51.580;5.010;2022-09-09T04:32:07;100627.06;;;16.27
24714;BMP280;12820;51.580;5.010;2022-09-09T04:37:09;100627.06;;;16.27
24714;BMP280;12820;51.580;5.010;2022-09-09T04:42:12;100624.53;;;16.27
24714;BMP280;12820;51.580;5.010;2022-09-09T04:47:14;100611.78;;;16.28
24714;BMP280;12820;51.580;5.010;2022-09-09T04:52:17;100609.94;;;16.32
24714;BMP280;12820;51.580;5.010;2022-09-09T04:57:19;100598.03;;;16.34
24714;BMP280;12820;51.580;5.010;2022-09-09T05:02:22;100584.47;;;16.35
24714;BMP280;12820;51.580;5.010;2022-09-09T05:07:26;100598.81;;;16.36
24714;BMP280;12820;51.580;5.010;2022-09-09T05:12:29;100598.66;;;16.38
24714;BMP280;12820;51.580;5.010;2022-09-09T05:17:32;100601.84;;;16.43
24714;BMP280;12820;51.580;5.010;2022-09-09T05:22:35;100606.66;;;16.49
24714;BMP280;12820;51.580;5.010;2022-09-09T05:27:37;100605.50;;;16.56
24714;BMP280;12820;51.580;5.010;2022-09-09T05:32:40;100607.81;;;16.62
24714;BMP280;12820;51.580;5.010;2022-09-09T05:37:44;100609.28;;;16.67
24714;BMP280;12820;51.580;5.010;2022-09-09T05:42:47;100614.16;;;16.71
24714;BMP280;12820;51.580;5.010;2022-09-09T05:47:51;100611.41;;;16.76
24714;BMP280;12820;51.580;5.010;2022-09-09T05:52:55;100603.50;;;16.83
24714;BMP280;12820;51.580;5.010;2022-09-09T05:57:57;100610.00;;;16.88
24714;BMP280;12820;51.580;5.010;2022-09-09T06:03:00;100608.94;;;16.94
24714;BMP280;12820;51.580;5.010;2022-09-09T06:08:03;100618.84;;;17.00
24714;BMP280;12820;51.580;5.010;2022-09-09T06:13:06;100622.91;;;17.04
24714;BMP280;12820;51.580;5.010;2022-09-09T06:18:08;100612.50;;;17.09
24714;BMP280;12820;51.580;5.010;2022-09-09T06:23:11;100612.84;;;17.20
24714;BMP280;12820;51.580;5.010;2022-09-09T06:28:15;100606.34;;;17.33
24714;BMP280;12820;51.580;5.010;2022-09-09T06:33:17;100600.63;;;17.46
24714;BMP280;12820;51.580;5.010;2022-09-09T06:38:19;100602.44;;;17.62
24714;BMP280;12820;51.580;5.010;2022-09-09T06:43:22;100608.59;;;17.75
24714;BMP280;12820;51.580;5.010;2022-09-09T06:48:26;100606.25;;;17.88
24714;BMP280;12820;51.580;5.010;2022-09-09T06:53:31;100610.94;;;17.97
24714;BMP280;12820;51.580;5.010;2022-09-09T06:58:36;100602.72;;;18.09
24714;BMP280;12820;51.580;5.010;2022-09-09T07:03:40;100598.56;;;18.24
24714;BMP280;12820;51.580;5.010;2022-09-09T07:08:43;100597.53;;;18.45
24714;BMP280;12820;51.580;5.010;2022-09-09T07:14:00;100600.44;;;18.70
24714;BMP280;12820;51.580;5.010;2022-09-09T07:19:04;100596.34;;;19.00
24714;BMP280;12820;51.580;5.010;2022-09-09T07:24:06;100592.47;;;19.24
24714;BMP280;12820;51.580;5.010;2022-09-09T07:29:14;100597.25;;;19.45
24714;BMP280;12820;51.580;5.010;2022-09-09T07:34:22;100590.97;;;19.67
24714;BMP280;12820;51.580;5.010;2022-09-09T07:39:24;100596.78;;;19.84
24714;BMP280;12820;51.580;5.010;2022-09-09T07:44:28;100590.34;;;19.92
24714;BMP280;12820;51.580;5.010;2022-09-09T07:49:40;100594.97;;;20.01
24714;BMP280;12820;51.580;5.010;2022-09-09T07:54:43;100590.81;;;20.14
24714;BMP280;12820;51.580;5.010;2022-09-09T07:59:48;100581.41;;;20.29
24714;BMP280;12820;51.580;5.010;2022-09-09T08:04:51;100591.13;;;20.38
24714;BMP280;12820;51.580;5.010;2022-09-09T08:09:55;100592.59;;;20.42
24714;BMP280;12820;51.580;5.010;2022-09-09T08:15:01;100602.16;;;20.39
24714;BMP280;12820;51.580;5.010;2022-09-09T08:20:07;100604.22;;;20.32
24714;BMP280;12820;51.580;5.010;2022-09-09T08:25:10;100617.13;;;20.29
24714;BMP280;12820;51.580;5.010;2022-09-09T08:30:13;100609.88;;;20.37
24714;BMP280;12820;51.580;5.010;2022-09-09T08:35:16;100602.81;;;20.56
24714;BMP280;12820;51.580;5.010;2022-09-09T08:40:26;100607.25;;;20.81
24714;BMP280;12820;51.580;5.010;2022-09-09T08:45:41;100605.97;;;21.01
24714;BMP280;12820;51.580;5.010;2022-09-09T08:50:50;100612.97;;;21.13
24714;BMP280;12820;51.580;5.010;2022-09-09T08:56:01;100614.97;;;21.22
24714;BMP280;12820;51.580;5.010;2022-09-09T09:06:59;100623.81;;;21.30
24714;BMP280;12820;51.580;5.010;2022-09-09T09:12:16;100635.06;;;21.28
24714;BMP280;12820;51.580;5.010;2022-09-09T09:17:21;100635.97;;;21.13
24714;BMP280;12820;51.580;5.010;2022-09-09T09:22:39;100643.41;;;21.02
24714;BMP280;12820;51.580;5.010;2022-09-09T09:33:22;100650.13;;;20.76
24714;BMP280;12820;51.580;5.010;2022-09-09T09:38:28;100646.53;;;20.65
24714;BMP280;12820;51.580;5.010;2022-09-09T09:43:53;100635.28;;;20.54
24714;BMP280;12820;51.580;5.010;2022-09-09T09:49:03;100637.44;;;20.75
24714;BMP280;12820;51.580;5.010;2022-09-09T09:59:34;100629.72;;;21.72
24714;BMP280;12820;51.580;5.010;2022-09-09T10:04:46;100632.03;;;22.02
24714;BMP280;12820;51.580;5.010;2022-09-09T10:09:55;100622.84;;;22.49
24714;BMP280;12820;51.580;5.010;2022-09-09T10:15:21;100627.16;;;22.99
24714;BMP280;12820;51.580;5.010;2022-09-09T10:21:03;100626.31;;;23.23
24714;BMP280;12820;51.580;5.010;2022-09-09T10:26:27;100623.84;;;23.21
24714;BMP280;12820;51.580;5.010;2022-09-09T10:31:50;100632.47;;;22.96
24714;BMP280;12820;51.580;5.010;2022-09-09T10:36:54;100639.00;;;22.63
24714;BMP280;12820;51.580;5.010;2022-09-09T10:42:15;100633.16;;;22.36
24714;BMP280;12820;51.580;5.010;2022-09-09T10:47:25;100635.94;;;22.07
24714;BMP280;12820;51.580;5.010;2022-09-09T10:57:50;100645.34;;;21.67
24714;BMP280;12820;51.580;5.010;2022-09-09T11:02:57;100637.66;;;21.53
24714;BMP280;12820;51.580;5.010;2022-09-09T11:13:18;100639.34;;;21.27
24714;BMP280;12820;51.580;5.010;2022-09-09T11:18:23;100634.16;;;21.29
24714;BMP280;12820;51.580;5.010;2022-09-09T11:23:29;100632.84;;;21.49
24714;BMP280;12820;51.580;5.010;2022-09-09T11:28:47;100633.56;;;22.30
24714;BMP280;12820;51.580;5.010;2022-09-09T11:44:32;100619.56;;;24.50
24714;BMP280;12820;51.580;5.010;2022-09-09T11:49:41;100622.13;;;24.50
24714;BMP280;12820;51.580;5.010;2022-09-09T11:54:48;100626.38;;;24.39
24714;BMP280;12820;51.580;5.010;2022-09-09T11:59:51;100624.31;;;24.43
24714;BMP280;12820;51.580;5.010;2022-09-09T12:10:22;100617.63;;;24.64
24714;BMP280;12820;51.580;5.010;2022-09-09T12:15:28;100619.16;;;24.33
24714;BMP280;12820;51.580;5.010;2022-09-09T12:20:34;100633.97;;;24.06
24714;BMP280;12820;51.580;5.010;2022-09-09T12:25:53;100619.63;;;23.92
24714;BMP280;12820;51.580;5.010;2022-09-09T12:31:22;100615.81;;;23.97
24714;BMP280;12820;51.580;5.010;2022-09-09T12:36:32;100606.88;;;24.03
24714;BMP280;12820;51.580;5.010;2022-09-09T12:41:34;100609.91;;;23.85
24714;BMP280;12820;51.580;5.010;2022-09-09T12:46:41;100605.59;;;23.73
24714;BMP280;12820;51.580;5.010;2022-09-09T12:51:44;100601.97;;;23.87
24714;BMP280;12820;51.580;5.010;2022-09-09T12:56:47;100600.41;;;23.62
24714;BMP280;12820;51.580;5.010;2022-09-09T13:01:57;100606.63;;;23.35
24714;BMP280;12820;51.580;5.010;2022-09-09T13:07:07;100609.00;;;23.26
24714;BMP280;12820;51.580;5.010;2022-09-09T13:12:16;100605.28;;;23.42
24714;BMP280;12820;51.580;5.010;2022-09-09T13:17:24;100600.53;;;23.84
24714;BMP280;12820;51.580;5.010;2022-09-09T13:22:37;100596.69;;;24.58
24714;BMP280;12820;51.580;5.010;2022-09-09T13:27:41;100595.38;;;24.96
24714;BMP280;12820;51.580;5.010;2022-09-09T13:38:08;100586.81;;;27.80
24714;BMP280;12820;51.580;5.010;2022-09-09T13:43:18;100588.72;;;29.33
24714;BMP280;12820;51.580;5.010;2022-09-09T13:48:23;100575.91;;;30.01
24714;BMP280;12820;51.580;5.010;2022-09-09T13:53:25;100583.91;;;28.30
24714;BMP280;12820;51.580;5.010;2022-09-09T13:58:30;100581.16;;;27.56
24714;BMP280;12820;51.580;5.010;2022-09-09T14:03:32;100586.88;;;26.52
24714;BMP280;12820;51.580;5.010;2022-09-09T14:08:35;100582.25;;;26.46
24714;BMP280;12820;51.580;5.010;2022-09-09T14:13:39;100586.75;;;27.23
24714;BMP280;12820;51.580;5.010;2022-09-09T14:18:41;100580.72;;;26.44
24714;BMP280;12820;51.580;5.010;2022-09-09T14:23:43;100607.28;;;25.62
24714;BMP280;12820;51.580;5.010;2022-09-09T14:28:45;100600.03;;;24.92
24714;BMP280;12820;51.580;5.010;2022-09-09T14:33:57;100605.69;;;24.29
24714;BMP280;12820;51.580;5.010;2022-09-09T14:38:59;100607.97;;;23.76
24714;BMP280;12820;51.580;5.010;2022-09-09T14:44:01;100621.59;;;23.29
24714;BMP280;12820;51.580;5.010;2022-09-09T14:49:03;100620.38;;;22.86
24714;BMP280;12820;51.580;5.010;2022-09-09T14:54:06;100627.28;;;22.47
24714;BMP280;12820;51.580;5.010;2022-09-09T14:59:08;100624.50;;;22.12
24714;BMP280;12820;51.580;5.010;2022-09-09T15:04:12;100629.50;;;21.88
24714;BMP280;12820;51.580;5.010;2022-09-09T15:09:15;100627.00;;;22.26
24714;BMP280;12820;51.580;5.010;2022-09-09T15:14:17;100623.34;;;23.41
24714;BMP280;12820;51.580;5.010;2022-09-09T15:19:26;100619.44;;;24.51
24714;BMP280;12820;51.580;5.010;2022-09-09T15:24:28;100624.78;;;25.26
24714;BMP280;12820;51.580;5.010;2022-09-09T15:29:33;100630.00;;;25.78
24714;BMP280;12820;51.580;5.010;2022-09-09T15:34:35;100621.31;;;26.31
24714;BMP280;12820;51.580;5.010;2022-09-09T15:39:38;100618.38;;;26.75
24714;BMP280;12820;51.580;5.010;2022-09-09T15:44:41;100614.66;;;27.38
24714;BMP280;12820;51.580;5.010;2022-09-09T15:49:45;100614.59;;;27.48
24714;BMP280;12820;51.580;5.010;2022-09-09T15:54:50;100617.53;;;27.06
24714;BMP280;12820;51.580;5.010;2022-09-09T15:59:53;100633.28;;;26.52
24714;BMP280;12820;51.580;5.010;2022-09-09T16:04:55;100630.56;;;26.03
24714;BMP280;12820;51.580;5.010;2022-09-09T16:09:57;100646.75;;;25.62
24714;BMP280;12820;51.580;5.010;2022-09-09T16:15:00;100641.69;;;25.18
24714;BMP280;12820;51.580;5.010;2022-09-09T16:20:03;100645.94;;;24.75
24714;BMP280;12820;51.580;5.010;2022-09-09T16:25:08;100653.13;;;24.36
24714;BMP280;12820;51.580;5.010;2022-09-09T16:30:10;100651.25;;;24.05
24714;BMP280;12820;51.580;5.010;2022-09-09T16:35:12;100655.59;;;23.80
24714;BMP280;12820;51.580;5.010;2022-09-09T16:40:14;100662.00;;;23.62
24714;BMP280;12820;51.580;5.010;2022-09-09T16:45:19;100663.66;;;23.51
24714;BMP280;12820;51.580;5.010;2022-09-09T16:50:21;100671.69;;;23.47
24714;BMP280;12820;51.580;5.010;2022-09-09T16:55:26;100673.00;;;23.52
24714;BMP280;12820;51.580;5.010;2022-09-09T17:00:28;100676.47;;;23.63
24714;BMP280;12820;51.580;5.010;2022-09-09T17:05:30;100674.31;;;23.69
24714;BMP280;12820;51.580;5.010;2022-09-09T17:10:40;100682.00;;;23.69
24714;BMP280;12820;51.580;5.010;2022-09-09T17:15:43;100688.38;;;23.64
24714;BMP280;12820;51.580;5.010;2022-09-09T17:20:45;100692.81;;;23.50
24714;BMP280;12820;51.580;5.010;2022-09-09T17:25:56;100686.47;;;23.31
24714;BMP280;12820;51.580;5.010;2022-09-09T17:30:59;100692.97;;;23.11
24714;BMP280;12820;51.580;5.010;2022-09-09T17:36:18;100689.28;;;22.90
24714;BMP280;12820;51.580;5.010;2022-09-09T17:41:26;100692.50;;;22.68
24714;BMP280;12820;51.580;5.010;2022-09-09T17:46:36;100699.16;;;22.44
24714;BMP280;12820;51.580;5.010;2022-09-09T17:51:40;100705.13;;;22.19
24714;BMP280;12820;51.580;5.010;2022-09-09T17:56:44;100708.28;;;21.97
24714;BMP280;12820;51.580;5.010;2022-09-09T18:01:47;100719.81;;;21.76
24714;BMP280;12820;51.580;5.010;2022-09-09T18:06:52;100732.97;;;21.57
24714;BMP280;12820;51.580;5.010;2022-09-09T18:11:57;100732.50;;;21.37
24714;BMP280;12820;51.580;5.010;2022-09-09T18:17:01;100733.56;;;21.19
24714;BMP280;12820;51.580;5.010;2022-09-09T18:22:04;100745.47;;;21.05
24714;BMP280;12820;51.580;5.010;2022-09-09T18:27:06;100760.72;;;20.92
24714;BMP280;12820;51.580;5.010;2022-09-09T18:32:08;100756.41;;;20.79
24714;BMP280;12820;51.580;5.010;2022-09-09T18:37:10;100760.50;;;20.67
24714;BMP280;12820;51.580;5.010;2022-09-09T18:42:13;100771.38;;;20.56
24714;BMP280;12820;51.580;5.010;2022-09-09T18:47:15;100764.28;;;20.46
24714;BMP280;12820;51.580;5.010;2022-09-09T18:52:18;100769.00;;;20.38
24714;BMP280;12820;51.580;5.010;2022-09-09T18:57:20;100770.28;;;20.29
24714;BMP280;12820;51.580;5.010;2022-09-09T19:02:22;100776.69;;;20.21
24714;BMP280;12820;51.580;5.010;2022-09-09T19:07:25;100799.19;;;20.15
24714;BMP280;12820;51.580;5.010;2022-09-09T19:12:27;100795.28;;;20.08
24714;BMP280;12820;51.580;5.010;2022-09-09T19:17:29;100798.25;;;20.01
24714;BMP280;12820;51.580;5.010;2022-09-09T19:22:32;100791.09;;;19.92
24714;BMP280;12820;51.580;5.010;2022-09-09T19:27:35;100801.59;;;19.86
24714;BMP280;12820;51.580;5.010;2022-09-09T19:32:38;100801.84;;;19.82
24714;BMP280;12820;51.580;5.010;2022-09-09T19:37:57;100808.91;;;19.77
24714;BMP280;12820;51.580;5.010;2022-09-09T19:43:00;100822.63;;;19.75
24714;BMP280;12820;51.580;5.010;2022-09-09T19:48:02;100825.34;;;19.72
24714;BMP280;12820;51.580;5.010;2022-09-09T19:53:05;100820.47;;;19.67
24714;BMP280;12820;51.580;5.010;2022-09-09T19:58:07;100831.88;;;19.60
24714;BMP280;12820;51.580;5.010;2022-09-09T20:03:09;100827.19;;;19.52
24714;BMP280;12820;51.580;5.010;2022-09-09T20:08:20;100841.13;;;19.45
24714;BMP280;12820;51.580;5.010;2022-09-09T20:13:22;100844.91;;;19.38
24714;BMP280;12820;51.580;5.010;2022-09-09T20:18:32;100846.00;;;19.33
24714;BMP280;12820;51.580;5.010;2022-09-09T20:23:35;100848.03;;;19.26
24714;BMP280;12820;51.580;5.010;2022-09-09T20:28:39;100852.53;;;19.21
24714;BMP280;12820;51.580;5.010;2022-09-09T20:33:42;100859.50;;;19.18
24714;BMP280;12820;51.580;5.010;2022-09-09T20:38:50;100857.94;;;19.16
24714;BMP280;12820;51.580;5.010;2022-09-09T20:43:57;100848.75;;;19.12
24714;BMP280;12820;51.580;5.010;2022-09-09T20:48:59;100841.28;;;19.09
24714;BMP280;12820;51.580;5.010;2022-09-09T20:54:07;100842.31;;;19.05
24714;BMP280;12820;51.580;5.010;2022-09-09T20:59:13;100843.38;;;19.01
24714;BMP280;12820;51.580;5.010;2022-09-09T21:04:17;100846.94;;;18.97
24714;BMP280;12820;51.580;5.010;2022-09-09T21:09:20;100845.31;;;18.96
24714;BMP280;12820;51.580;5.010;2022-09-09T21:14:25;100835.25;;;18.93
24714;BMP280;12820;51.580;5.010;2022-09-09T21:19:28;100846.41;;;18.91
24714;BMP280;12820;51.580;5.010;2022-09-09T21:24:30;100843.06;;;18.90
24714;BMP280;12820;51.580;5.010;2022-09-09T21:29:32;100834.66;;;18.88
24714;BMP280;12820;51.580;5.010;2022-09-09T21:34:34;100843.22;;;18.87
24714;BMP280;12820;51.580;5.010;2022-09-09T21:39:41;100834.03;;;18.84
24714;BMP280;12820;51.580;5.010;2022-09-09T21:44:43;100838.44;;;18.80
24714;BMP280;12820;51.580;5.010;2022-09-09T21:49:45;100831.03;;;18.76
24714;BMP280;12820;51.580;5.010;2022-09-09T21:54:48;100843.00;;;18.74
24714;BMP280;12820;51.580;5.010;2022-09-09T21:59:50;100841.50;;;18.70
24714;BMP280;12820;51.580;5.010;2022-09-09T22:04:53;100850.13;;;18.66
24714;BMP280;12820;51.580;5.010;2022-09-09T22:09:55;100855.38;;;18.63
24714;BMP280;12820;51.580;5.010;2022-09-09T22:14:58;100846.16;;;18.61
24714;BMP280;12820;51.580;5.010;2022-09-09T22:20:00;100848.91;;;18.56
24714;BMP280;12820;51.580;5.010;2022-09-09T22:25:03;100853.31;;;18.53
24714;BMP280;12820;51.580;5.010;2022-09-09T22:30:06;100856.13;;;18.47
24714;BMP280;12820;51.580;5.010;2022-09-09T22:35:08;100871.63;;;18.43
24714;BMP280;12820;51.580;5.010;2022-09-09T22:40:10;100859.94;;;18.39
24714;BMP280;12820;51.580;5.010;2022-09-09T22:45:14;100855.94;;;18.33
24714;BMP280;12820;51.580;5.010;2022-09-09T22:50:17;100862.13;;;18.28
24714;BMP280;12820;51.580;5.010;2022-09-09T22:55:21;100864.03;;;18.23
24714;BMP280;12820;51.580;5.010;2022-09-09T23:00:24;100858.31;;;18.18
24714;BMP280;12820;51.580;5.010;2022-09-09T23:05:26;100860.19;;;18.15
24714;BMP280;12820;51.580;5.010;2022-09-09T23:10:30;100867.13;;;18.12
24714;BMP280;12820;51.580;5.010;2022-09-09T23:15:34;100872.28;;;18.10
24714;BMP280;12820;51.580;5.010;2022-09-09T23:20:37;100888.47;;;18.08
24714;BMP280;12820;51.580;5.010;2022-09-09T23:25:39;100880.16;;;18.04
24714;BMP280;12820;51.580;5.010;2022-09-09T23:30:41;100880.22;;;18.03
24714;BMP280;12820;51.580;5.010;2022-09-09T23:35:43;100876.06;;;18.02
24714;BMP280;12820;51.580;5.010;2022-09-09T23:40:45;100868.41;;;18.02
24714;BMP280;12820;51.580;5.010;2022-09-09T23:45:47;100878.66;;;18.00
24714;BMP280;12820;51.580;5.010;2022-09-09T23:50:51;100860.91;;;17.99
24714;BMP280;12820;51.580;5.010;2022-09-09T23:55:53;100864.28;;;17.99
